Toyofujimaru No.2 — 7JDI — position and weather

sailwx.info

Track history (hours):
 
Tides and Currents Weather Stations Pressure Air Temp Water Temp Dewpoint Dewpoint Depression Visibility Wind Speed Wind Dir Waves Ship Positions

Toyofujimaru No.2

Last reported at 2017-Oct-06 11:47 UTC. Time now 2017-Oct-17 19:17 UTC.
Position N 38°44' E 121°49'.
Warning: this ship's position is 11 days out of date.

Length 165 m; draft 6.3 m.

Type: Ship. MMSI: 432667000.

Date/timePositionNaut miles runAvg speedWind from/ knotsBaromVisibWave heightAir tempDewpointWater temp
2017-Oct-06 11:47N 38°44' E 121°49'  
2017-Sep-29 16:24N 38°52' E 121°57'911.5
2017-Sep-29 15:39N 38°45' E 121°50'318.6
2017-Sep-29 15:30N 38°43' E 121°48'918.9
2017-Sep-29 15:00N 38°35' E 121°42'917.9
2017-Sep-29 14:30N 38°30' E 121°32'16817.3
2017-Sep-29 04:48N 38°56' E 117°60'412.6
2017-Sep-29 04:30N 38°57' E 117°55'611.4
2017-Sep-29 04:00N 38°59' E 117°48'3 6.1
2017-Sep-29 03:30N 39°01' E 117°46'0 0.3
2017-Sep-29 02:49N 39°01' E 117°46'0 0.0
2017-Sep-29 02:13N 39°01' E 117°46'0 0.0
2017-Sep-29 01:55N 39°01' E 117°46'0 0.0
2017-Sep-29 01:25N 39°01' E 117°46'0 0.0
2017-Sep-29 00:55N 39°01' E 117°46'0 0.0
2017-Sep-29 00:25N 39°01' E 117°46'0 0.0
2017-Sep-28 22:25N 39°01' E 117°46'0 0.0
2017-Sep-28 21:55N 39°01' E 117°46'0 0.0
2017-Sep-28 21:25N 39°01' E 117°46'0 0.0
2017-Sep-28 19:19N 39°01' E 117°46'0 0.0
2017-Sep-28 16:55N 39°01' E 117°46'0 0.0
2017-Sep-28 16:19N 39°01' E 117°46'0 0.0
2017-Sep-28 15:55N 39°01' E 117°46'0 0.0
2017-Sep-28 15:19N 39°01' E 117°46'0 0.0
2017-Sep-28 15:00N 39°01' E 117°46'1 1.5
2017-Sep-28 14:30N 39°01' E 117°47'4 7.4
2017-Sep-28 13:59N 38°58' E 117°50'5 8.9
2017-Sep-28 13:29N 38°57' E 117°55'5 9.4
2017-Sep-28 12:58N 38°58' E 118°02'  
Track history (hours):
 
Tides and Currents Weather Stations Pressure Air Temp Water Temp Dewpoint Dewpoint Depression Visibility Wind Speed Wind Dir Waves Ship Positions

Toyofujimaru No.2

Last reported at 2017-Oct-06 11:47 UTC. Time now 2017-Oct-17 19:17 UTC.
Position N 38°44' E 121°49'.
Warning: this ship's position is 11 days out of date.

Length 165 m; draft 6.3 m.

Type: Ship. MMSI: 432667000.

Date/timePositionNaut miles runAvg speedWind from/ knotsBaromVisibWave heightAir tempDewpointWater temp
2017-Oct-06 11:47N 38°44' E 121°49'  
2017-Sep-29 16:24N 38°52' E 121°57'911.5
2017-Sep-29 15:39N 38°45' E 121°50'318.6
2017-Sep-29 15:30N 38°43' E 121°48'918.9
2017-Sep-29 15:00N 38°35' E 121°42'917.9
2017-Sep-29 14:30N 38°30' E 121°32'16817.3
2017-Sep-29 04:48N 38°56' E 117°60'412.6
2017-Sep-29 04:30N 38°57' E 117°55'611.4
2017-Sep-29 04:00N 38°59' E 117°48'3 6.1
2017-Sep-29 03:30N 39°01' E 117°46'0 0.3
2017-Sep-29 02:49N 39°01' E 117°46'0 0.0
2017-Sep-29 02:13N 39°01' E 117°46'0 0.0
2017-Sep-29 01:55N 39°01' E 117°46'0 0.0
2017-Sep-29 01:25N 39°01' E 117°46'0 0.0
2017-Sep-29 00:55N 39°01' E 117°46'0 0.0
2017-Sep-29 00:25N 39°01' E 117°46'0 0.0
2017-Sep-28 22:25N 39°01' E 117°46'0 0.0
2017-Sep-28 21:55N 39°01' E 117°46'0 0.0
2017-Sep-28 21:25N 39°01' E 117°46'0 0.0
2017-Sep-28 19:19N 39°01' E 117°46'0 0.0
2017-Sep-28 16:55N 39°01' E 117°46'0 0.0
2017-Sep-28 16:19N 39°01' E 117°46'0 0.0
2017-Sep-28 15:55N 39°01' E 117°46'0 0.0
2017-Sep-28 15:19N 39°01' E 117°46'0 0.0
2017-Sep-28 15:00N 39°01' E 117°46'1 1.5
2017-Sep-28 14:30N 39°01' E 117°47'4 7.4
2017-Sep-28 13:59N 38°58' E 117°50'5 8.9
2017-Sep-28 13:29N 38°57' E 117°55'5 9.4
2017-Sep-28 12:58N 38°58' E 118°02'  

Dump ship's entire track history